createdAt,value
2022-09-22T00:01:23.979Z,79.91
2022-09-22T00:03:55.421Z,80.17
2022-09-22T00:06:25.870Z,80.19
2022-09-22T00:08:56.399Z,80.66
2022-09-22T00:11:33.544Z,80.08
2022-09-22T00:14:08.419Z,79.98
2022-09-22T00:16:40.694Z,80.26
2022-09-22T00:19:14.284Z,80.58
2022-09-22T00:21:41.295Z,79.88
2022-09-22T00:24:08.674Z,79.90
2022-09-22T00:26:36.938Z,80.26
2022-09-22T00:29:05.471Z,79.66
2022-09-22T00:31:32.674Z,79.89
2022-09-22T00:33:59.840Z,80.15
2022-09-22T00:36:28.664Z,79.67
2022-09-22T00:38:57.733Z,79.59
2022-09-22T00:41:35.344Z,79.87
2022-09-22T00:44:27.116Z,80.08
2022-09-22T00:47:01.658Z,80.17
2022-09-22T00:49:47.031Z,80.56
2022-09-22T00:52:20.021Z,80.40
2022-09-22T00:54:48.634Z,80.51
2022-09-22T00:57:24.446Z,80.51
2022-09-22T00:59:53.906Z,80.21
2022-09-22T01:02:21.440Z,80.33
2022-09-22T01:04:51.681Z,80.71
2022-09-22T01:07:22.005Z,80.85
2022-09-22T01:09:49.467Z,80.83
2022-09-22T01:12:16.564Z,80.35
2022-09-22T01:14:59.322Z,80.40
2022-09-22T01:17:51.844Z,80.15
2022-09-22T01:20:37.451Z,80.81
2022-09-22T01:23:52.273Z,80.48
2022-09-22T01:26:36.582Z,80.97
2022-09-22T01:29:41.161Z,80.84
2022-09-22T01:32:29.742Z,80.55
2022-09-22T01:35:15.133Z,80.82
2022-09-22T01:38:04.935Z,80.33
2022-09-22T01:40:43.055Z,80.42
2022-09-22T01:43:18.972Z,80.35
2022-09-22T01:45:48.691Z,80.39
2022-09-22T01:48:24.172Z,80.71
2022-09-22T01:50:57.371Z,80.35
2022-09-22T01:53:30.301Z,79.97
2022-09-22T01:56:06.063Z,80.20
2022-09-22T01:58:37.164Z,79.88
2022-09-22T02:01:14.304Z,79.91
2022-09-22T02:03:57.503Z,79.73
2022-09-22T02:06:33.329Z,80.59
2022-09-22T02:09:06.344Z,79.92
2022-09-22T02:11:34.282Z,79.76
2022-09-22T02:14:02.944Z,80.21
2022-09-22T02:16:31.458Z,79.85
2022-09-22T02:19:21.153Z,79.67
2022-09-22T02:21:49.512Z,79.91
2022-09-22T02:24:31.521Z,79.67
2022-09-22T02:27:01.103Z,79.77
2022-09-22T02:29:34.482Z,79.94
2022-09-22T02:32:06.594Z,79.84
2022-09-22T02:34:34.240Z,79.88
2022-09-22T02:37:27.240Z,79.67
2022-09-22T02:40:11.816Z,79.54
2022-09-22T02:43:08.160Z,80.31
2022-09-22T02:45:46.103Z,80.17
2022-09-22T02:48:21.635Z,79.75
2022-09-22T02:50:48.586Z,80.03
2022-09-22T02:53:18.536Z,79.79
2022-09-22T02:55:47.161Z,79.53
2022-09-22T02:58:16.231Z,80.32
2022-09-22T03:00:45.561Z,80.11
2022-09-22T03:03:12.820Z,79.84
2022-09-22T03:05:40.163Z,80.21
2022-09-22T03:08:07.864Z,79.65
2022-09-22T03:10:35.034Z,79.95
2022-09-22T03:13:16.078Z,80.01
2022-09-22T03:15:48.393Z,79.69
2022-09-22T03:18:15.795Z,79.57
2022-09-22T03:20:43.080Z,79.56
2022-09-22T03:23:10.521Z,79.88
2022-09-22T03:25:37.986Z,79.62
2022-09-22T03:28:05.450Z,80.13
2022-09-22T03:30:32.923Z,79.49
2022-09-22T03:32:59.992Z,79.58
2022-09-22T03:35:27.135Z,79.61
2022-09-22T03:37:54.093Z,79.61
2022-09-22T03:40:22.860Z,79.66
2022-09-22T03:42:50.192Z,80.18
2022-09-22T03:45:17.322Z,80.09
2022-09-22T03:47:44.641Z,79.91
2022-09-22T03:50:12.094Z,79.87
2022-09-22T03:52:40.401Z,79.77
2022-09-22T03:55:08.415Z,80.33
2022-09-22T03:57:35.481Z,80.34
2022-09-22T04:00:03.894Z,79.99
2022-09-22T04:02:38.924Z,80.88
2022-09-22T04:05:06.544Z,80.70
2022-09-22T04:07:33.854Z,80.72
2022-09-22T04:10:02.279Z,80.31
2022-09-22T04:12:29.701Z,80.66
2022-09-22T04:14:56.990Z,80.48
2022-09-22T04:17:24.164Z,80.24
2022-09-22T04:19:51.332Z,80.42
2022-09-22T04:22:18.317Z,80.68
2022-09-22T04:24:45.311Z,81.20
2022-09-22T04:27:20.927Z,81.12
2022-09-22T04:29:49.340Z,80.77
2022-09-22T04:32:18.016Z,80.82
2022-09-22T04:34:45.495Z,80.99
2022-09-22T04:37:12.640Z,80.85
2022-09-22T04:39:39.746Z,80.81
2022-09-22T04:42:09.184Z,80.85
2022-09-22T04:44:36.610Z,80.82
2022-09-22T04:47:04.929Z,80.29
2022-09-22T04:49:32.100Z,80.30
2022-09-22T04:51:59.581Z,80.16
2022-09-22T04:54:26.582Z,80.50
2022-09-22T04:56:53.770Z,80.19
2022-09-22T04:59:20.869Z,80.48
2022-09-22T05:01:47.921Z,80.50
2022-09-22T05:04:15.101Z,80.51
2022-09-22T05:06:42.459Z,80.37
2022-09-22T05:09:09.573Z,80.28
2022-09-22T05:11:36.905Z,80.45
2022-09-22T05:14:04.021Z,80.55
2022-09-22T05:16:31.706Z,80.47
2022-09-22T05:18:58.840Z,80.49
2022-09-22T05:21:25.985Z,80.39
2022-09-22T05:23:53.312Z,80.54
2022-09-22T05:26:20.571Z,80.24
2022-09-22T05:28:47.607Z,80.65
2022-09-22T05:31:14.606Z,80.44
2022-09-22T05:33:41.906Z,80.65
2022-09-22T05:36:08.972Z,80.23
2022-09-22T05:38:36.180Z,80.32
2022-09-22T05:41:03.905Z,80.63
2022-09-22T05:43:31.073Z,80.30
2022-09-22T05:45:58.181Z,80.27
2022-09-22T05:48:28.890Z,80.69
2022-09-22T05:50:58.180Z,80.59
2022-09-22T05:53:25.192Z,80.66
2022-09-22T05:55:52.520Z,80.78
2022-09-22T05:58:20.799Z,81.08
2022-09-22T06:00:48.047Z,81.08
2022-09-22T06:03:15.438Z,81.10
2022-09-22T06:05:44.938Z,81.29
2022-09-22T06:08:12.271Z,81.00
2022-09-22T06:10:40.071Z,81.38
2022-09-22T06:13:10.173Z,81.25
2022-09-22T06:15:38.817Z,81.21
2022-09-22T06:18:13.181Z,81.31
2022-09-22T06:20:42.950Z,80.87
2022-09-22T06:23:10.630Z,81.51
2022-09-22T06:25:37.651Z,81.56
2022-09-22T06:28:07.042Z,81.33
2022-09-22T06:30:35.787Z,81.78
2022-09-22T06:33:03.193Z,81.44
2022-09-22T06:35:37.935Z,81.61
2022-09-22T06:38:06.906Z,82.06
2022-09-22T06:40:38.198Z,82.11
2022-09-22T06:43:13.136Z,82.16
2022-09-22T06:45:41.638Z,82.22
2022-09-22T06:48:10.987Z,82.50
2022-09-22T06:50:41.229Z,82.14
2022-09-22T06:53:12.018Z,82.50
2022-09-22T06:55:41.760Z,81.65
2022-09-22T06:58:09.478Z,81.45
2022-09-22T07:00:37.451Z,81.47
2022-09-22T07:03:26.481Z,81.24
2022-09-22T07:06:01.365Z,81.46
2022-09-22T07:08:30.970Z,81.24
2022-09-22T07:11:02.070Z,81.44
2022-09-22T07:13:31.451Z,80.66
2022-09-22T07:16:03.442Z,81.26
2022-09-22T07:18:31.461Z,80.70
2022-09-22T07:21:12.975Z,80.60
2022-09-22T07:23:41.110Z,79.94
2022-09-22T07:26:15.058Z,80.42
2022-09-22T07:28:42.677Z,79.86
2022-09-22T07:31:12.806Z,79.37
2022-09-22T07:33:42.851Z,79.85
2022-09-22T07:36:14.539Z,79.49
2022-09-22T07:38:44.284Z,79.92
2022-09-22T07:41:15.782Z,79.79
2022-09-22T07:43:42.982Z,79.95
2022-09-22T07:46:10.144Z,79.42
2022-09-22T07:48:38.039Z,79.14
2022-09-22T07:51:12.872Z,78.79
2022-09-22T07:53:41.613Z,78.78
2022-09-22T07:56:15.230Z,78.68
2022-09-22T07:58:48.346Z,79.04
2022-09-22T08:01:15.850Z,77.92
2022-09-22T08:03:43.439Z,77.34
2022-09-22T08:06:11.728Z,75.79
2022-09-22T08:08:42.413Z,75.51
2022-09-22T08:11:18.138Z,74.50
2022-09-22T08:13:57.475Z,73.77
2022-09-22T08:16:29.188Z,72.68
2022-09-22T08:19:02.672Z,72.98
2022-09-22T08:21:35.655Z,72.39
2022-09-22T08:24:07.914Z,72.24
2022-09-22T08:26:38.081Z,71.97
2022-09-22T08:29:06.971Z,72.72
2022-09-22T08:31:36.045Z,71.16
2022-09-22T08:34:06.619Z,70.06
2022-09-22T08:36:33.821Z,68.76
2022-09-22T08:39:02.163Z,69.00
2022-09-22T08:41:32.169Z,69.35
2022-09-22T08:44:03.796Z,69.31
2022-09-22T08:46:37.492Z,69.08
2022-09-22T08:49:54.271Z,67.84
2022-09-22T08:52:42.891Z,68.13
2022-09-22T08:55:24.120Z,67.03
2022-09-22T08:58:46.782Z,66.74
2022-09-22T09:01:41.427Z,65.33
2022-09-22T09:04:19.009Z,64.56
2022-09-22T09:06:52.839Z,65.69
2022-09-22T09:09:31.569Z,65.38
2022-09-22T09:12:06.325Z,66.47
2022-09-22T09:15:17.516Z,65.75
2022-09-22T09:17:47.971Z,66.11
2022-09-22T09:20:19.628Z,65.87
2022-09-22T09:22:55.619Z,65.24
2022-09-22T09:25:37.442Z,63.58
2022-09-22T09:28:13.535Z,63.72
2022-09-22T09:30:48.889Z,63.93
2022-09-22T09:33:26.692Z,62.55
2022-09-22T09:35:54.035Z,62.06
2022-09-22T09:38:35.883Z,61.56
2022-09-22T09:41:16.173Z,61.81
2022-09-22T09:43:45.107Z,61.67
2022-09-22T09:46:50.989Z,61.14
2022-09-22T09:49:21.668Z,61.15
2022-09-22T09:51:54.277Z,60.34
2022-09-22T09:54:21.517Z,59.94
2022-09-22T09:57:08.108Z,60.16
2022-09-22T09:59:56.011Z,59.80
2022-09-22T10:02:28.850Z,59.95
2022-09-22T10:05:00.380Z,59.63
2022-09-22T10:10:30.446Z,60.66
2022-09-22T10:13:00.628Z,59.55
2022-09-22T10:15:27.772Z,58.79
2022-09-22T10:17:54.963Z,59.41
2022-09-22T10:20:34.150Z,59.81
2022-09-22T10:23:34.337Z,60.44
2022-09-22T10:26:18.831Z,62.02
2022-09-22T10:28:50.563Z,62.56
2022-09-22T10:31:26.246Z,62.73
2022-09-22T10:33:59.164Z,63.81
2022-09-22T10:36:29.363Z,64.21
2022-09-22T10:38:59.630Z,64.72
2022-09-22T10:41:31.995Z,64.85
2022-09-22T10:44:15.538Z,65.18
2022-09-22T10:46:58.666Z,65.13
2022-09-22T10:49:37.485Z,64.48
2022-09-22T10:52:27.532Z,63.88
2022-09-22T10:55:09.657Z,63.57
2022-09-22T10:58:09.274Z,63.34
2022-09-22T11:00:39.646Z,63.48
2022-09-22T11:03:09.726Z,63.41
2022-09-22T11:06:25.049Z,63.41
2022-09-22T11:09:49.290Z,63.78
2022-09-22T11:12:29.167Z,61.93
2022-09-22T11:15:08.126Z,59.47
2022-09-22T11:18:20.807Z,59.22
2022-09-22T11:21:13.921Z,59.33
2022-09-22T11:24:06.126Z,59.80
2022-09-22T11:26:36.255Z,60.34
2022-09-22T11:29:11.866Z,60.68
2022-09-22T11:32:00.134Z,60.53
2022-09-22T11:34:51.644Z,61.48
2022-09-22T11:37:40.771Z,61.30
2022-09-22T11:40:17.486Z,62.05
2022-09-22T11:43:27.301Z,61.30
2022-09-22T11:45:54.659Z,61.73
2022-09-22T11:48:59.149Z,61.92
2022-09-22T11:51:47.601Z,61.52
2022-09-22T11:54:33.287Z,62.01
2022-09-22T11:57:14.544Z,60.54
2022-09-22T12:00:00.462Z,60.75
2022-09-22T12:02:32.721Z,60.66
2022-09-22T12:05:05.292Z,61.18
2022-09-22T12:07:45.120Z,60.92
2022-09-22T12:10:23.250Z,61.09
2022-09-22T12:12:52.001Z,61.30
2022-09-22T12:15:37.195Z,62.12
2022-09-22T12:18:14.232Z,61.49
2022-09-22T12:21:04.101Z,61.17
2022-09-22T12:23:41.507Z,61.24
2022-09-22T12:26:25.422Z,61.57
2022-09-22T12:28:52.770Z,62.21
2022-09-22T12:31:21.456Z,62.11
2022-09-22T12:33:53.172Z,61.96
2022-09-22T12:36:36.541Z,61.91
2022-09-22T12:39:24.461Z,62.27
2022-09-22T12:41:59.003Z,62.68
2022-09-22T12:44:30.590Z,62.72
2022-09-22T12:47:04.606Z,62.04
2022-09-22T12:49:32.178Z,61.88
2022-09-22T12:51:59.511Z,61.70
2022-09-22T12:54:29.219Z,60.82
2022-09-22T12:57:00.185Z,60.65
2022-09-22T12:59:36.419Z,61.08
2022-09-22T13:02:41.600Z,62.47
2022-09-22T13:05:12.030Z,61.23
2022-09-22T13:07:40.156Z,61.08
2022-09-22T13:10:22.887Z,61.01
2022-09-22T13:13:09.916Z,60.63
2022-09-22T13:15:46.372Z,61.43
2022-09-22T13:18:33.725Z,60.48
2022-09-22T13:21:03.673Z,60.60
2022-09-22T13:23:30.908Z,60.61
2022-09-22T13:26:06.989Z,60.60
2022-09-22T13:28:34.341Z,61.31
2022-09-22T13:31:29.285Z,60.88
2022-09-22T13:33:56.620Z,60.44
2022-09-22T13:36:25.559Z,59.48
2022-09-22T13:38:59.402Z,60.09
2022-09-22T13:41:37.390Z,59.38
2022-09-22T13:44:12.166Z,58.53
2022-09-22T13:46:51.230Z,57.95
2022-09-22T13:49:34.016Z,57.65
2022-09-22T13:52:07.630Z,57.96
2022-09-22T13:54:38.031Z,58.28
2022-09-22T13:57:16.031Z,59.15
2022-09-22T13:59:44.081Z,58.87
2022-09-22T14:02:13.640Z,59.48
2022-09-22T14:04:58.019Z,59.11
2022-09-22T14:07:30.207Z,60.02
2022-09-22T14:09:59.799Z,60.15
2022-09-22T14:12:29.332Z,60.19
2022-09-22T14:14:56.677Z,60.50
2022-09-22T14:17:28.963Z,60.86
2022-09-22T14:20:03.162Z,60.88
2022-09-22T14:22:40.769Z,60.73
2022-09-22T14:25:22.712Z,61.61
2022-09-22T14:27:58.995Z,60.97
2022-09-22T14:30:30.430Z,60.94
2022-09-22T14:33:01.759Z,61.04
2022-09-22T14:35:36.664Z,60.60
2022-09-22T14:38:17.211Z,61.06
2022-09-22T14:40:56.732Z,61.66
2022-09-22T14:43:27.926Z,61.25
2022-09-22T14:46:01.714Z,61.51
2022-09-22T14:48:33.527Z,61.18
2022-09-22T14:51:07.804Z,61.13
2022-09-22T14:53:44.244Z,62.34
2022-09-22T14:56:23.196Z,62.98
2022-09-22T14:58:53.519Z,63.74
2022-09-22T15:01:47.878Z,64.43
2022-09-22T15:04:39.277Z,64.70
2022-09-22T15:07:07.680Z,64.84
2022-09-22T15:09:43.071Z,65.97
2022-09-22T15:12:48.687Z,65.51
2022-09-22T15:15:19.384Z,64.15
2022-09-22T15:18:10.695Z,63.99
2022-09-22T15:20:56.003Z,63.62
2022-09-22T15:23:41.467Z,62.83
2022-09-22T15:26:24.119Z,63.38
2022-09-22T15:28:54.096Z,63.29
2022-09-22T15:31:28.409Z,64.13
2022-09-22T15:33:57.319Z,63.58
2022-09-22T15:36:26.058Z,63.51
2022-09-22T15:38:59.542Z,63.77
2022-09-22T15:41:27.823Z,63.98
2022-09-22T15:43:55.217Z,64.30
2022-09-22T15:46:34.336Z,64.42
2022-09-22T15:49:10.141Z,64.45
2022-09-22T15:51:37.562Z,65.74
2022-09-22T15:54:13.301Z,66.36
2022-09-22T15:56:42.115Z,66.28
2022-09-22T15:59:20.131Z,65.40
2022-09-22T16:01:47.703Z,64.34
2022-09-22T16:04:15.418Z,64.71
2022-09-22T16:06:48.507Z,65.38
2022-09-22T16:09:17.703Z,64.94
2022-09-22T16:11:45.235Z,65.10
2022-09-22T16:14:12.702Z,64.65
2022-09-22T16:16:39.880Z,64.00
2022-09-22T16:19:09.654Z,64.23
2022-09-22T16:21:40.788Z,64.61
2022-09-22T16:24:10.687Z,64.58
2022-09-22T16:26:40.125Z,64.84
2022-09-22T16:29:08.594Z,64.80
2022-09-22T16:31:37.496Z,65.13
2022-09-22T16:34:06.767Z,65.25
2022-09-22T16:36:36.503Z,65.02
2022-09-22T16:39:05.046Z,65.11
2022-09-22T16:41:34.096Z,65.51
2022-09-22T16:44:02.166Z,65.69
2022-09-22T16:46:30.680Z,65.23
2022-09-22T16:49:04.684Z,65.34
2022-09-22T16:51:33.865Z,65.10
2022-09-22T16:54:01.235Z,65.65
2022-09-22T16:56:30.457Z,66.32
2022-09-22T16:58:57.690Z,66.25
2022-09-22T17:01:24.999Z,66.27
2022-09-22T17:03:55.136Z,66.51
2022-09-22T17:06:25.485Z,66.26
2022-09-22T17:08:53.243Z,66.54
2022-09-22T17:11:23.615Z,67.25
2022-09-22T17:13:50.970Z,66.80
2022-09-22T17:16:25.339Z,67.44
2022-09-22T17:18:53.202Z,67.57
2022-09-22T17:21:24.529Z,67.22
2022-09-22T17:23:54.303Z,67.88
2022-09-22T17:26:21.790Z,68.70
2022-09-22T17:28:51.194Z,70.00
2022-09-22T17:31:19.264Z,70.52
2022-09-22T17:33:52.140Z,70.61
2022-09-22T17:36:21.528Z,71.09
2022-09-22T17:38:51.306Z,71.69
2022-09-22T17:41:20.593Z,71.63
2022-09-22T17:43:53.484Z,72.10
2022-09-22T17:46:20.757Z,72.29
2022-09-22T17:49:07.278Z,72.24
2022-09-22T17:51:55.903Z,72.38
2022-09-22T17:54:49.923Z,72.95
2022-09-22T17:57:19.943Z,72.93
2022-09-22T17:59:47.529Z,73.08
2022-09-22T18:02:16.939Z,73.40
2022-09-22T18:04:45.057Z,73.68
2022-09-22T18:07:23.536Z,73.73
2022-09-22T18:09:52.055Z,74.06
2022-09-22T18:12:21.678Z,74.15
2022-09-22T18:14:55.647Z,74.16
2022-09-22T18:17:27.446Z,74.79
2022-09-22T18:19:56.153Z,74.96
2022-09-22T18:22:25.064Z,74.51
2022-09-22T18:24:56.801Z,74.91
2022-09-22T18:27:27.508Z,75.63
2022-09-22T18:29:58.853Z,75.49
2022-09-22T18:32:27.810Z,75.73
2022-09-22T18:34:55.830Z,76.27
2022-09-22T18:37:24.915Z,75.48
2022-09-22T18:39:52.188Z,76.32
2022-09-22T18:42:21.606Z,76.45
2022-09-22T18:44:49.061Z,76.22
2022-09-22T18:47:21.295Z,76.91
2022-09-22T18:49:50.323Z,76.80
2022-09-22T18:52:21.779Z,76.68
2022-09-22T18:54:49.230Z,76.97
2022-09-22T18:57:16.419Z,77.64
2022-09-22T18:59:43.738Z,77.69
2022-09-22T19:02:12.026Z,77.55
2022-09-22T19:04:39.573Z,77.61
2022-09-22T19:07:25.543Z,77.99
2022-09-22T19:09:53.279Z,78.04
2022-09-22T19:12:21.821Z,78.71
2022-09-22T19:14:57.646Z,78.57
2022-09-22T19:17:24.847Z,78.65
2022-09-22T19:19:52.389Z,78.29
2022-09-22T19:22:20.577Z,78.76
2022-09-22T19:24:48.226Z,78.66
2022-09-22T19:27:17.937Z,78.78
2022-09-22T19:29:45.318Z,79.41
2022-09-22T19:32:12.847Z,79.26
2022-09-22T19:34:40.345Z,79.79
2022-09-22T19:37:07.753Z,79.86
2022-09-22T19:39:36.503Z,80.09
2022-09-22T19:42:03.757Z,79.72
2022-09-22T19:44:32.774Z,79.78
2022-09-22T19:46:59.994Z,79.75
2022-09-22T19:49:27.128Z,80.41
2022-09-22T19:51:54.476Z,80.81
2022-09-22T19:54:21.912Z,81.10
2022-09-22T19:56:50.538Z,81.08
2022-09-22T19:59:19.945Z,80.43
2022-09-22T20:01:48.270Z,80.75
2022-09-22T20:04:18.915Z,80.90
2022-09-22T20:06:49.052Z,80.59
2022-09-22T20:09:19.052Z,80.75
2022-09-22T20:11:49.762Z,80.25
2022-09-22T20:14:23.030Z,80.52
2022-09-22T20:17:09.666Z,79.93
2022-09-22T20:19:40.741Z,80.23
2022-09-22T20:22:28.293Z,80.03
2022-09-22T20:24:58.223Z,80.17
2022-09-22T20:27:29.381Z,80.73
2022-09-22T20:29:57.651Z,80.96
2022-09-22T20:32:26.877Z,81.25
2022-09-22T20:34:55.781Z,81.13
2022-09-22T20:37:25.130Z,81.36
2022-09-22T20:39:52.647Z,81.42
2022-09-22T20:42:20.134Z,81.32
2022-09-22T20:44:47.360Z,81.04
2022-09-22T20:47:17.343Z,80.56
2022-09-22T20:49:49.239Z,80.78
2022-09-22T20:52:20.494Z,80.66
2022-09-22T20:54:48.886Z,80.28
2022-09-22T20:57:16.395Z,80.23
2022-09-22T20:59:46.298Z,80.66
2022-09-22T21:02:15.212Z,81.08
2022-09-22T21:04:42.498Z,81.07
2022-09-22T21:07:11.628Z,81.09
2022-09-22T21:09:57.991Z,80.96
2022-09-22T21:12:31.125Z,80.95
2022-09-22T21:14:59.056Z,80.51
2022-09-22T21:17:28.174Z,80.33
2022-09-22T21:19:57.278Z,80.24
2022-09-22T21:22:25.588Z,81.00
2022-09-22T21:24:52.762Z,81.68
2022-09-22T21:27:20.409Z,81.38
2022-09-22T21:29:47.641Z,81.56
2022-09-22T21:32:14.849Z,81.33
2022-09-22T21:34:43.298Z,81.68
2022-09-22T21:37:10.621Z,81.39
2022-09-22T21:39:37.766Z,81.17
2022-09-22T21:42:04.917Z,81.25
2022-09-22T21:44:32.056Z,81.43
2022-09-22T21:46:59.595Z,81.14
2022-09-22T21:49:26.836Z,81.42
2022-09-22T21:51:53.894Z,81.14
2022-09-22T21:54:21.130Z,80.73
2022-09-22T21:56:50.854Z,80.84
2022-09-22T21:59:18.167Z,81.05
2022-09-22T22:01:45.423Z,81.76
2022-09-22T22:04:17.835Z,82.09
2022-09-22T22:06:46.211Z,82.15
2022-09-22T22:09:16.226Z,82.32
2022-09-22T22:11:55.788Z,81.70
2022-09-22T22:14:25.103Z,82.29
2022-09-22T22:16:55.207Z,82.02
2022-09-22T22:19:26.086Z,81.57
2022-09-22T22:21:54.055Z,81.09
2022-09-22T22:24:41.044Z,80.75
2022-09-22T22:27:10.404Z,80.64
2022-09-22T22:29:39.323Z,80.51
2022-09-22T22:32:09.142Z,80.96
2022-09-22T22:34:36.831Z,80.65
2022-09-22T22:37:07.250Z,80.73
2022-09-22T22:39:34.408Z,81.19
2022-09-22T22:42:01.696Z,81.00
2022-09-22T22:44:28.826Z,80.93
2022-09-22T22:46:55.995Z,80.96
2022-09-22T22:49:23.333Z,80.53
2022-09-22T22:51:52.498Z,80.49
2022-09-22T22:54:19.792Z,80.43
2022-09-22T22:56:50.918Z,80.16
2022-09-22T22:59:19.337Z,80.12
2022-09-22T23:01:46.672Z,80.35
2022-09-22T23:04:13.857Z,80.48
2022-09-22T23:06:44.470Z,80.49
2022-09-22T23:09:14.302Z,79.58
2022-09-22T23:11:42.667Z,80.29
2022-09-22T23:14:13.046Z,80.52
2022-09-22T23:16:46.890Z,79.76
2022-09-22T23:19:17.228Z,79.34
2022-09-22T23:21:46.076Z,79.49
2022-09-22T23:24:19.413Z,79.60
2022-09-22T23:26:46.745Z,80.26
2022-09-22T23:29:13.910Z,80.45
2022-09-22T23:31:41.044Z,80.35
2022-09-22T23:34:08.179Z,80.99
2022-09-22T23:36:35.441Z,80.48
2022-09-22T23:39:04.459Z,80.24
2022-09-22T23:41:36.547Z,80.51
2022-09-22T23:44:07.832Z,80.86
2022-09-22T23:46:35.173Z,79.97
2022-09-22T23:49:02.680Z,81.03
2022-09-22T23:51:30.568Z,80.41
2022-09-22T23:53:58.416Z,81.11
2022-09-22T23:56:25.871Z,81.07
2022-09-22T23:58:53.452Z,81.58
